createdAt,value
2022-11-12T00:00:02.883Z,13.38
2022-11-12T00:02:29.143Z,15.00
2022-11-12T00:04:55.410Z,12.05
2022-11-12T00:07:21.644Z,11.98
2022-11-12T00:09:47.892Z,12.40
2022-11-12T00:12:14.154Z,13.20
2022-11-12T00:14:40.425Z,13.68
2022-11-12T00:17:06.682Z,16.00
2022-11-12T00:19:32.928Z,14.35
2022-11-12T00:21:59.273Z,14.55
2022-11-12T00:24:25.743Z,16.95
2022-11-12T00:26:52.063Z,17.15
2022-11-12T00:29:18.355Z,17.15
2022-11-12T00:31:44.599Z,15.88
2022-11-12T00:34:10.931Z,18.98
2022-11-12T00:36:37.276Z,16.50
2022-11-12T00:39:03.884Z,17.83
2022-11-12T00:41:30.150Z,14.65
2022-11-12T00:43:56.561Z,15.77
2022-11-12T00:46:22.833Z,18.40
2022-11-12T00:48:49.087Z,14.85
2022-11-12T00:51:15.347Z,16.85
2022-11-12T00:53:41.625Z,21.67
2022-11-12T00:56:08.145Z,18.85
2022-11-12T00:58:35.640Z,19.55
2022-11-12T01:01:06.461Z,17.30
2022-11-12T01:06:05.896Z,18.88
2022-11-12T01:08:32.245Z,19.02
2022-11-12T01:11:24.912Z,19.13
2022-11-12T01:13:55.680Z,16.10
2022-11-12T01:16:22.947Z,16.67
2022-11-12T01:18:52.507Z,15.85
2022-11-12T01:21:18.785Z,21.00
2022-11-12T01:23:45.081Z,18.45
2022-11-12T01:26:13.029Z,21.02
2022-11-12T01:28:39.412Z,20.85
2022-11-12T01:31:12.554Z,18.45
2022-11-12T01:33:39.244Z,18.20
2022-11-12T01:36:06.429Z,18.17
2022-11-12T01:38:36.439Z,20.70
2022-11-12T01:41:02.981Z,16.40
2022-11-12T01:43:29.734Z,24.25
2022-11-12T01:45:56.882Z,21.00
2022-11-12T01:48:28.423Z,26.05
2022-11-12T01:50:55.188Z,22.00
2022-11-12T01:53:22.893Z,19.42
2022-11-12T01:55:49.272Z,20.90
2022-11-12T01:58:16.127Z,19.92
2022-11-12T02:00:42.476Z,21.88
2022-11-12T02:03:11.514Z,20.52
2022-11-12T02:05:39.053Z,16.98
2022-11-12T02:08:05.960Z,18.77
2022-11-12T02:10:32.245Z,16.70
2022-11-12T02:13:17.278Z,16.58
2022-11-12T02:15:43.626Z,19.40
2022-11-12T02:18:09.938Z,17.90
2022-11-12T02:20:37.300Z,20.20
2022-11-12T02:23:04.283Z,14.02
2022-11-12T02:25:30.744Z,15.10
2022-11-12T02:27:58.295Z,18.10
2022-11-12T02:30:34.467Z,18.75
2022-11-12T02:33:00.901Z,16.13
2022-11-12T02:35:27.440Z,17.00
2022-11-12T02:37:53.964Z,16.98
2022-11-12T02:40:20.220Z,19.48
2022-11-12T02:42:46.524Z,18.95
2022-11-12T02:45:13.105Z,20.45
2022-11-12T02:47:39.438Z,21.58
2022-11-12T02:50:05.963Z,19.60
2022-11-12T02:52:32.605Z,25.17
2022-11-12T02:54:58.896Z,21.58
2022-11-12T02:57:25.213Z,21.10
2022-11-12T02:59:51.508Z,21.15
2022-11-12T03:02:18.036Z,21.77
2022-11-12T03:04:49.149Z,21.90
2022-11-12T03:07:15.956Z,20.50
2022-11-12T03:09:42.300Z,20.48
2022-11-12T03:12:08.811Z,20.35
2022-11-12T03:14:35.072Z,21.10
2022-11-12T03:17:01.332Z,20.15
2022-11-12T03:19:27.602Z,17.15
2022-11-12T03:21:53.889Z,19.02
2022-11-12T03:24:20.167Z,22.02
2022-11-12T03:26:46.444Z,19.70
2022-11-12T03:29:12.744Z,17.65
2022-11-12T03:31:39.034Z,19.25
2022-11-12T03:34:05.324Z,22.90
2022-11-12T03:36:31.706Z,23.23
2022-11-12T03:38:58.006Z,22.50
2022-11-12T03:41:24.263Z,19.27
2022-11-12T03:43:50.517Z,20.05
2022-11-12T03:46:16.793Z,21.35
2022-11-12T03:48:43.164Z,18.98
2022-11-12T03:51:09.876Z,24.38
2022-11-12T03:53:36.181Z,21.17
2022-11-12T03:56:02.430Z,24.02
2022-11-12T03:58:29.058Z,27.10
2022-11-12T04:00:55.532Z,21.45
2022-11-12T04:03:21.893Z,21.65
2022-11-12T04:06:07.081Z,19.70
2022-11-12T04:08:36.123Z,24.38
2022-11-12T04:11:03.720Z,21.80
2022-11-12T04:13:31.217Z,21.75
2022-11-12T04:16:23.934Z,24.52
2022-11-12T04:19:09.719Z,18.52
2022-11-12T04:21:51.086Z,18.25
2022-11-12T04:24:36.136Z,20.90
2022-11-12T04:27:02.778Z,20.23
2022-11-12T04:29:47.943Z,21.88
2022-11-12T04:32:14.602Z,20.20
2022-11-12T04:34:40.906Z,23.20
2022-11-12T04:37:07.742Z,23.08
2022-11-12T04:39:34.034Z,22.30
2022-11-12T04:42:19.192Z,20.23
2022-11-12T04:45:01.370Z,19.00
2022-11-12T04:47:38.217Z,19.90
2022-11-12T04:50:06.603Z,19.88
2022-11-12T04:52:33.087Z,18.55
2022-11-12T04:54:59.457Z,21.10
2022-11-12T04:57:26.013Z,17.83
2022-11-12T04:59:52.327Z,22.65
2022-11-12T05:02:18.647Z,21.23
2022-11-12T05:04:44.940Z,18.15
2022-11-12T05:07:11.613Z,18.05
2022-11-12T05:09:37.944Z,21.80
2022-11-12T05:12:04.312Z,20.67
2022-11-12T05:14:30.648Z,20.45
2022-11-12T05:16:56.989Z,20.65
2022-11-12T05:19:23.308Z,25.05
2022-11-12T05:22:17.404Z,20.38
2022-11-12T05:24:48.416Z,19.60
2022-11-12T05:27:16.447Z,22.65
2022-11-12T05:29:42.863Z,22.95
2022-11-12T05:32:10.489Z,21.73
2022-11-12T05:34:36.838Z,25.52
2022-11-12T05:37:04.457Z,23.00
2022-11-12T05:39:30.721Z,23.17
2022-11-12T05:42:13.830Z,23.52
2022-11-12T05:44:40.917Z,23.75
2022-11-12T05:47:07.387Z,30.33
2022-11-12T05:49:33.662Z,26.73
2022-11-12T05:51:59.910Z,29.23
2022-11-12T05:54:26.258Z,27.00
2022-11-12T05:56:53.529Z,27.80
2022-11-12T05:59:19.835Z,22.75
2022-11-12T06:01:46.156Z,31.08
2022-11-12T06:04:15.920Z,27.55
2022-11-12T06:06:42.621Z,26.35
2022-11-12T06:09:09.546Z,26.38
2022-11-12T06:11:36.396Z,37.47
2022-11-12T06:14:03.580Z,47.80
2022-11-12T06:16:30.283Z,29.92
2022-11-12T06:18:56.605Z,48.75
2022-11-12T06:21:22.941Z,27.33
2022-11-12T06:23:51.122Z,21.35
2022-11-12T06:26:17.471Z,21.52
2022-11-12T06:28:43.870Z,22.58
2022-11-12T06:31:10.287Z,19.52
2022-11-12T06:33:36.588Z,20.00
2022-11-12T06:36:04.466Z,23.02
2022-11-12T06:38:34.864Z,20.90
2022-11-12T06:41:01.315Z,25.63
2022-11-12T06:43:28.765Z,20.02
2022-11-12T06:45:58.114Z,21.23
2022-11-12T06:48:24.587Z,17.98
2022-11-12T06:50:51.011Z,21.88
2022-11-12T06:53:17.437Z,22.42
2022-11-12T06:55:43.786Z,21.92
2022-11-12T06:58:10.095Z,18.23
2022-11-12T07:00:36.428Z,18.92
2022-11-12T07:03:06.816Z,18.63
2022-11-12T07:05:35.411Z,20.10
2022-11-12T07:08:01.695Z,16.65
2022-11-12T07:10:27.975Z,18.08
2022-11-12T07:12:54.522Z,19.20
2022-11-12T07:15:20.797Z,19.10
2022-11-12T07:17:47.141Z,20.08
2022-11-12T07:20:13.468Z,20.00
2022-11-12T07:22:39.734Z,17.92
2022-11-12T07:25:06.231Z,18.40
2022-11-12T07:27:32.560Z,20.13
2022-11-12T07:29:58.793Z,17.10
2022-11-12T07:32:25.112Z,17.13
2022-11-12T07:34:51.425Z,17.20
2022-11-12T07:37:17.781Z,20.33
2022-11-12T07:39:44.069Z,15.68
2022-11-12T07:42:10.325Z,17.63
2022-11-12T07:44:36.592Z,16.90
2022-11-12T07:47:02.853Z,15.52
2022-11-12T07:49:29.122Z,15.38
2022-11-12T07:51:55.395Z,15.35
2022-11-12T07:54:21.738Z,18.15
2022-11-12T07:56:48.029Z,18.25
2022-11-12T07:59:14.289Z,19.58
2022-11-12T08:01:41.393Z,15.40
2022-11-12T08:04:09.286Z,19.85
2022-11-12T08:06:36.344Z,18.30
2022-11-12T08:09:04.908Z,19.27
2022-11-12T08:11:32.097Z,18.80
2022-11-12T08:13:58.349Z,17.52
2022-11-12T08:16:24.688Z,21.08
2022-11-12T08:18:51.402Z,18.90
2022-11-12T08:21:18.295Z,20.05
2022-11-12T08:23:44.930Z,20.65
2022-11-12T08:26:12.482Z,22.67
2022-11-12T08:28:39.281Z,21.92
2022-11-12T08:31:16.300Z,28.85
2022-11-12T08:33:43.124Z,27.17
2022-11-12T08:36:12.894Z,28.05
2022-11-12T08:38:39.711Z,30.33
2022-11-12T08:41:07.635Z,22.88
2022-11-12T08:43:34.300Z,25.30
2022-11-12T08:46:01.402Z,31.13
2022-11-12T08:48:28.772Z,25.23
2022-11-12T08:50:55.864Z,21.25
2022-11-12T08:53:23.011Z,22.80
2022-11-12T08:55:49.478Z,30.63
2022-11-12T08:58:15.816Z,25.85
2022-11-12T09:00:43.374Z,36.17
2022-11-12T09:03:17.104Z,28.33
2022-11-12T09:05:43.717Z,34.40
2022-11-12T09:08:12.065Z,30.90
2022-11-12T09:10:38.926Z,30.13
2022-11-12T09:13:05.576Z,32.85
2022-11-12T09:15:39.229Z,31.98
2022-11-12T09:18:07.130Z,27.75
2022-11-12T09:20:33.475Z,34.00
2022-11-12T09:23:08.458Z,27.85
2022-11-12T09:25:34.903Z,26.83
2022-11-12T09:28:19.447Z,23.35
2022-11-12T09:30:46.906Z,24.65
2022-11-12T09:33:13.913Z,26.73
2022-11-12T09:35:40.273Z,27.77
2022-11-12T09:38:06.546Z,20.60
2022-11-12T09:41:02.379Z,21.30
2022-11-12T09:43:37.577Z,24.58
2022-11-12T09:46:26.643Z,24.52
2022-11-12T09:48:58.469Z,22.48
2022-11-12T09:51:33.685Z,23.75
2022-11-12T09:54:02.691Z,27.02
2022-11-12T09:56:29.782Z,19.98
2022-11-12T09:58:56.156Z,21.67
2022-11-12T10:01:24.722Z,18.38
2022-11-12T10:03:52.454Z,18.58
2022-11-12T10:06:21.656Z,19.15
2022-11-12T10:09:06.948Z,17.50
2022-11-12T10:12:03.797Z,19.92
2022-11-12T10:14:49.681Z,18.10
2022-11-12T10:17:24.646Z,18.35
2022-11-12T10:20:09.585Z,15.55
2022-11-12T10:22:38.961Z,18.25
2022-11-12T10:25:18.895Z,14.95
2022-11-12T10:27:45.536Z,19.05
2022-11-12T10:30:16.901Z,14.95
2022-11-12T10:32:44.973Z,16.17
2022-11-12T10:35:13.023Z,14.50
2022-11-12T10:37:45.669Z,15.85
2022-11-12T10:40:21.164Z,17.33
2022-11-12T10:43:13.798Z,15.25
2022-11-12T10:45:40.126Z,15.88
2022-11-12T10:48:24.474Z,16.90
2022-11-12T10:50:53.359Z,16.65
2022-11-12T10:53:31.631Z,13.93
2022-11-12T10:55:59.608Z,14.73
2022-11-12T10:58:26.332Z,15.75
2022-11-12T11:01:07.330Z,14.10
2022-11-12T11:03:35.005Z,13.20
2022-11-12T11:06:04.431Z,14.98
2022-11-12T11:08:41.250Z,14.18
2022-11-12T11:11:16.583Z,13.48
2022-11-12T11:13:50.217Z,14.63
2022-11-12T11:16:22.169Z,17.45
2022-11-12T11:18:50.750Z,13.13
2022-11-12T11:21:25.840Z,15.15
2022-11-12T11:23:52.348Z,14.75
2022-11-12T11:26:27.827Z,14.60
2022-11-12T11:29:15.955Z,15.50
2022-11-12T11:31:54.432Z,16.38
2022-11-12T11:34:27.173Z,12.05
2022-11-12T11:36:56.540Z,13.77
2022-11-12T11:39:30.304Z,12.63
2022-11-12T11:42:02.722Z,13.90
2022-11-12T11:44:28.987Z,13.43
2022-11-12T11:46:55.353Z,12.05
2022-11-12T11:49:30.791Z,11.88
2022-11-12T11:52:02.405Z,13.82
2022-11-12T11:54:31.451Z,14.27
2022-11-12T11:56:58.667Z,13.98
2022-11-12T11:59:27.963Z,10.55
2022-11-12T12:02:03.828Z,10.20
2022-11-12T12:04:47.219Z,14.30
2022-11-12T12:07:33.630Z,12.07
2022-11-12T12:10:12.050Z,13.38
2022-11-12T12:12:50.634Z,14.25
2022-11-12T12:15:16.903Z,11.23
2022-11-12T12:17:54.096Z,14.32
2022-11-12T12:20:22.766Z,11.70
2022-11-12T12:22:56.928Z,12.45
2022-11-12T12:25:25.271Z,9.93
2022-11-12T12:27:55.912Z,11.73
2022-11-12T12:30:25.411Z,9.38
2022-11-12T12:32:56.917Z,9.80
2022-11-12T12:35:28.358Z,8.55
2022-11-12T12:38:13.527Z,7.72
2022-11-12T12:40:53.980Z,10.20
2022-11-12T12:43:24.722Z,7.80
2022-11-12T12:48:21.525Z,9.40
2022-11-12T12:50:48.567Z,7.93
2022-11-12T12:53:15.118Z,8.32
2022-11-12T12:55:42.685Z,10.80
2022-11-12T12:58:21.494Z,10.00
2022-11-12T13:00:52.223Z,10.35
2022-11-12T13:03:37.088Z,7.47
2022-11-12T13:06:22.025Z,8.88
2022-11-12T13:08:49.628Z,9.18
2022-11-12T13:11:56.109Z,11.57
2022-11-12T13:14:31.361Z,11.10
2022-11-12T13:16:59.275Z,9.27
2022-11-12T13:19:39.028Z,11.13
2022-11-12T13:22:17.391Z,9.65
2022-11-12T13:25:02.651Z,9.32
2022-11-12T13:27:44.380Z,10.60
2022-11-12T13:30:13.752Z,8.63
2022-11-12T13:32:43.467Z,11.13
2022-11-12T13:35:20.912Z,12.70
2022-11-12T13:37:49.889Z,12.68
2022-11-12T13:40:19.561Z,10.63
2022-11-12T13:42:48.758Z,10.90
2022-11-12T13:45:19.268Z,10.90
2022-11-12T13:47:45.687Z,13.30
2022-11-12T13:50:17.719Z,12.32
2022-11-12T13:52:44.057Z,12.10
2022-11-12T13:55:13.507Z,12.02
2022-11-12T13:57:39.852Z,11.13
2022-11-12T14:00:10.704Z,12.05
2022-11-12T14:02:41.459Z,11.45
2022-11-12T14:05:15.421Z,11.38
2022-11-12T14:07:53.896Z,12.65
2022-11-12T14:10:43.428Z,14.45
2022-11-12T14:13:21.727Z,15.18
2022-11-12T14:16:03.384Z,15.90
2022-11-12T14:18:35.872Z,16.88
2022-11-12T14:21:06.743Z,16.65
2022-11-12T14:23:37.319Z,13.20
2022-11-12T14:26:03.830Z,15.38
2022-11-12T14:28:34.259Z,11.55
2022-11-12T14:31:01.779Z,12.13
2022-11-12T14:33:29.445Z,9.40
2022-11-12T14:36:13.166Z,12.07
2022-11-12T14:38:39.405Z,10.57
2022-11-12T14:41:10.228Z,10.07
2022-11-12T14:44:11.147Z,11.23
2022-11-12T14:46:38.750Z,14.18
2022-11-12T14:49:12.027Z,10.95
2022-11-12T14:51:42.432Z,11.68
2022-11-12T14:54:13.928Z,13.43
2022-11-12T14:56:42.114Z,8.88
2022-11-12T14:59:11.229Z,11.80
2022-11-12T15:04:25.845Z,9.57
2022-11-12T15:06:56.126Z,8.90
2022-11-12T15:09:33.175Z,12.80
2022-11-12T15:11:59.538Z,13.95
2022-11-12T15:14:26.047Z,13.40
2022-11-12T15:16:52.437Z,9.73
2022-11-12T15:19:20.970Z,11.50
2022-11-12T15:21:48.757Z,13.57
2022-11-12T15:24:31.684Z,15.80
2022-11-12T15:26:59.605Z,13.98
2022-11-12T15:29:30.915Z,12.75
2022-11-12T15:31:57.228Z,15.60
2022-11-12T15:34:23.448Z,13.88
2022-11-12T15:36:49.764Z,12.13
2022-11-12T15:39:16.159Z,14.07
2022-11-12T15:41:42.526Z,13.27
2022-11-12T15:44:09.828Z,16.80
2022-11-12T15:46:36.866Z,14.50
2022-11-12T15:49:03.484Z,15.50
2022-11-12T15:51:29.836Z,13.77
2022-11-12T15:53:56.105Z,12.95
2022-11-12T15:56:23.792Z,10.68
2022-11-12T15:58:50.153Z,12.90
2022-11-12T16:01:16.456Z,13.82
2022-11-12T16:03:47.485Z,12.68
2022-11-12T16:06:13.773Z,15.07
2022-11-12T16:08:40.103Z,13.80
2022-11-12T16:11:26.471Z,15.98
2022-11-12T16:13:52.771Z,15.02
2022-11-12T16:16:19.034Z,15.77
2022-11-12T16:18:45.310Z,22.52
2022-11-12T16:21:12.855Z,20.63
2022-11-12T16:23:40.792Z,18.83
2022-11-12T16:26:08.581Z,19.95
2022-11-12T16:28:35.058Z,18.33
2022-11-12T16:31:01.365Z,17.98
2022-11-12T16:33:27.945Z,16.58
2022-11-12T16:35:54.434Z,18.45
2022-11-12T16:38:21.412Z,17.42
2022-11-12T16:40:47.708Z,17.73
2022-11-12T16:43:13.955Z,16.00
2022-11-12T16:45:41.800Z,17.23
2022-11-12T16:48:18.921Z,20.00
2022-11-12T16:50:45.588Z,18.98
2022-11-12T16:53:11.879Z,21.70
2022-11-12T16:55:38.266Z,15.85
2022-11-12T16:58:04.625Z,17.58
2022-11-12T17:00:30.888Z,17.13
2022-11-12T17:02:57.209Z,18.95
2022-11-12T17:05:24.677Z,18.13
2022-11-12T17:07:56.023Z,15.10
2022-11-12T17:10:25.488Z,20.55
2022-11-12T17:12:52.241Z,21.45
2022-11-12T17:15:18.896Z,25.30
2022-11-12T17:17:45.530Z,21.67
2022-11-12T17:20:11.966Z,21.75
2022-11-12T17:22:38.246Z,24.35
2022-11-12T17:25:05.433Z,32.92
2022-11-12T17:27:31.756Z,27.23
2022-11-12T17:29:58.021Z,26.80
2022-11-12T17:32:24.551Z,32.83
2022-11-12T17:34:50.799Z,31.48
2022-11-12T17:37:17.106Z,28.48
2022-11-12T17:39:44.425Z,25.45
2022-11-12T17:42:10.768Z,28.45
2022-11-12T17:44:37.105Z,25.27
2022-11-12T17:47:04.004Z,24.40
2022-11-12T17:49:30.274Z,19.17
2022-11-12T17:51:56.553Z,22.75
2022-11-12T17:54:25.847Z,20.23
2022-11-12T17:56:52.170Z,20.73
2022-11-12T17:59:18.461Z,16.80
2022-11-12T18:01:44.756Z,19.60
2022-11-12T18:04:11.184Z,22.70
2022-11-12T18:06:37.551Z,23.92
2022-11-12T18:09:08.304Z,18.95
2022-11-12T18:11:41.855Z,21.02
2022-11-12T18:14:08.545Z,21.02
2022-11-12T18:16:34.812Z,18.98
2022-11-12T18:19:01.362Z,17.20
2022-11-12T18:21:27.820Z,17.83
2022-11-12T18:23:54.159Z,19.58
2022-11-12T18:26:20.905Z,19.75
2022-11-12T18:28:54.334Z,19.83
2022-11-12T18:31:21.103Z,19.48
2022-11-12T18:33:47.673Z,19.13
2022-11-12T18:36:16.898Z,19.90
2022-11-12T18:38:43.412Z,19.33
2022-11-12T18:41:13.870Z,19.33
2022-11-12T18:43:40.169Z,23.10
2022-11-12T18:46:07.462Z,24.75
2022-11-12T18:48:34.455Z,22.23
2022-11-12T18:51:05.313Z,20.33
2022-11-12T18:56:02.270Z,20.00
2022-11-12T18:58:34.636Z,23.85
2022-11-12T19:01:21.477Z,21.25
2022-11-12T19:03:48.452Z,24.63
2022-11-12T19:06:14.796Z,22.52
2022-11-12T19:08:41.517Z,23.50
2022-11-12T19:11:09.035Z,19.38
2022-11-12T19:13:35.952Z,19.75
2022-11-12T19:16:06.681Z,22.55
2022-11-12T19:18:33.229Z,21.65
2022-11-12T19:21:00.331Z,24.67
2022-11-12T19:23:27.374Z,25.13
2022-11-12T19:25:53.804Z,24.88
2022-11-12T19:28:20.062Z,28.23
2022-11-12T19:30:46.349Z,31.60
2022-11-12T19:33:12.607Z,30.27
2022-11-12T19:35:39.589Z,27.85
2022-11-12T19:38:05.860Z,32.45
2022-11-12T19:40:32.268Z,34.97
2022-11-12T19:42:58.538Z,33.65
2022-11-12T19:45:24.836Z,31.65
2022-11-12T19:47:51.874Z,34.10
2022-11-12T19:50:23.505Z,29.50
2022-11-12T19:52:52.870Z,28.80
2022-11-12T19:55:19.113Z,24.60
2022-11-12T19:57:45.569Z,24.42
2022-11-12T20:00:12.281Z,24.85
2022-11-12T20:02:38.569Z,29.60
2022-11-12T20:05:05.030Z,26.55
2022-11-12T20:07:31.287Z,32.45
2022-11-12T20:10:00.927Z,27.48
2022-11-12T20:12:29.832Z,32.65
2022-11-12T20:14:56.158Z,33.08
2022-11-12T20:17:22.426Z,31.15
2022-11-12T20:19:48.727Z,32.50
2022-11-12T20:22:15.066Z,32.58
2022-11-12T20:24:41.384Z,34.55
2022-11-12T20:27:07.849Z,31.13
2022-11-12T20:29:34.111Z,24.33
2022-11-12T20:32:00.433Z,21.55
2022-11-12T20:34:27.054Z,21.42
2022-11-12T20:36:54.373Z,20.13
2022-11-12T20:39:21.457Z,22.73
2022-11-12T20:41:48.857Z,18.50
2022-11-12T20:44:15.188Z,18.92
2022-11-12T20:46:41.465Z,16.73
2022-11-12T20:49:08.652Z,17.50
2022-11-12T20:51:35.869Z,15.30
2022-11-12T20:54:03.368Z,18.55
2022-11-12T20:56:30.265Z,18.02
2022-11-12T20:58:57.345Z,22.00
2022-11-12T21:01:24.411Z,19.48
2022-11-12T21:03:50.987Z,16.55
2022-11-12T21:06:19.296Z,14.65
2022-11-12T21:08:45.747Z,12.63
2022-11-12T21:11:16.301Z,12.18
2022-11-12T21:13:43.000Z,14.20
2022-11-12T21:16:09.852Z,13.82
2022-11-12T21:18:36.473Z,14.80
2022-11-12T21:21:05.031Z,17.00
2022-11-12T21:23:32.064Z,17.33
2022-11-12T21:26:01.812Z,19.00
2022-11-12T21:28:28.265Z,34.10
2022-11-12T21:31:00.757Z,44.50
2022-11-12T21:33:27.003Z,32.15
2022-11-12T21:35:53.487Z,35.20
2022-11-12T21:38:19.741Z,37.53
2022-11-12T21:40:45.984Z,35.92
2022-11-12T21:43:12.328Z,35.30
2022-11-12T21:45:43.801Z,41.08
2022-11-12T21:48:10.157Z,39.85
2022-11-12T21:50:36.415Z,43.30
2022-11-12T21:53:02.815Z,40.83
2022-11-12T21:55:29.068Z,42.42
2022-11-12T21:57:55.342Z,42.65
2022-11-12T22:00:41.631Z,38.13
2022-11-12T22:03:08.303Z,45.03
2022-11-12T22:05:35.796Z,46.13
2022-11-12T22:08:02.052Z,54.47
2022-11-12T22:10:28.299Z,53.72
2022-11-12T22:13:24.780Z,51.63
2022-11-12T22:15:40.868Z,51.53
2022-11-12T22:18:07.239Z,52.85
2022-11-12T22:20:33.634Z,49.78
2022-11-12T22:22:59.921Z,51.38
2022-11-12T22:25:27.121Z,57.42
2022-11-12T22:27:53.407Z,60.90
2022-11-12T22:30:19.683Z,61.70
2022-11-12T22:32:45.965Z,60.13
2022-11-12T22:35:12.275Z,50.50
2022-11-12T22:37:38.550Z,45.70
2022-11-12T22:40:09.147Z,44.97
2022-11-12T22:42:38.376Z,46.60
2022-11-12T22:45:04.879Z,50.65
2022-11-12T22:47:32.735Z,41.50
2022-11-12T22:49:58.989Z,37.38
2022-11-12T22:52:25.328Z,37.60
2022-11-12T22:54:51.577Z,32.22
2022-11-12T22:57:17.844Z,31.73
2022-11-12T22:59:44.198Z,32.42
2022-11-12T23:02:10.648Z,30.83
2022-11-12T23:04:36.996Z,28.83
2022-11-12T23:07:03.331Z,26.10
2022-11-12T23:09:29.620Z,29.48
2022-11-12T23:11:55.883Z,33.03
2022-11-12T23:14:22.250Z,30.65
2022-11-12T23:16:49.541Z,32.15
2022-11-12T23:19:15.803Z,32.85
2022-11-12T23:21:42.123Z,32.42
2022-11-12T23:24:08.411Z,31.80
2022-11-12T23:26:35.048Z,40.83
2022-11-12T23:29:01.690Z,36.15
2022-11-12T23:31:29.580Z,31.52
2022-11-12T23:33:57.139Z,30.45
2022-11-12T23:36:24.425Z,24.98
2022-11-12T23:38:53.683Z,23.58
2022-11-12T23:41:22.691Z,23.38
2022-11-12T23:43:49.680Z,31.17
2022-11-12T23:46:16.166Z,21.05
2022-11-12T23:48:42.435Z,24.58
2022-11-12T23:51:14.574Z,23.15
2022-11-12T23:53:41.246Z,24.05
2022-11-12T23:56:09.377Z,21.52
2022-11-12T23:58:36.838Z,22.80
